Sunday, October 21, 2018, 12:08 AM EDT
Back to Local

KRUT, Rutland, Rutland-southern Vermont Regional Airport

Location: North Clarendon, VT, United States Lat: 43.533
Local Time: 12:08 AM EDT ( 4:08 GMT) Lon: -72.95
Time Zone: US/Eastern Elev: 787 ft

Show me the last for .
Show Decoded

2018-10-20 22:56 METAR KRUT 210256Z AUTO 28004KT 10SM CLR 09/00 A2960 RMK AO2 SLP045 T00890000
                 53005 $ =
2018-10-20 21:56 METAR KRUT 210156Z AUTO 00000KT 10SM SCT120 07/02 A2959 RMK AO2 SLP045 T00720022
                 $ =
2018-10-20 20:56 METAR KRUT 210056Z AUTO 05003KT 10SM BKN110 07/02 A2958 RMK AO2 SLP041 T00720022
                 $ =
2018-10-20 19:56 METAR KRUT 202356Z AUTO 00000KT 10SM BKN100 08/02 A2958 RMK AO2 SLP041 T00830017
                 10150 20083 53013 $ =
2018-10-20 18:56 METAR KRUT 202256Z AUTO 30003KT 10SM CLR 12/M02 A2957 RMK AO2 SLP035 T01171017 $
                 =
2018-10-20 17:56 METAR KRUT 202156Z AUTO VRB05KT 10SM CLR 13/M02 A2955 RMK AO2 SLP025 T01281022 $
                 =
2018-10-20 16:56 METAR KRUT 202056Z AUTO 26006KT 10SM BKN070 14/00 A2954 RMK AO2 SLP024 T01390000
                 55004 $ =
2018-10-20 15:56 METAR KRUT 201956Z AUTO 24011G17KT 10SM BKN060 14/01 A2954 RMK AO2 SLP021
                 T01440011 $ =
2018-10-20 14:56 METAR KRUT 201856Z AUTO 22010G18KT 10SM FEW060 14/02 A2954 RMK AO2 PK WND
                 24026/1833 SLP022 T01440022 $ =
2018-10-20 13:56 METAR KRUT 201756Z AUTO 25014G22KT 10SM BKN060 15/02 A2955 RMK AO2 SLP027 60000
                 T01500022 10150 20106 58013 $ =
2018-10-20 12:56 METAR KRUT 201656Z AUTO 24014G22KT 10SM SCT045 OVC055 13/03 A2957 RMK AO2 PK WND
                 25030/1620 SLP035 T01330028 $ =
2018-10-20 11:56 METAR KRUT 201556Z AUTO 24017G24KT 10SM FEW038 13/04 A2958 RMK AO2 SLP038
                 T01330039 $ =
2018-10-20 10:56 METAR KRUT 201456Z AUTO 26013G18KT 10SM BKN032 OVC043 12/06 A2959 RMK AO2 SLP042
                 60000 T01220056 51002 $ =
2018-10-20 09:56 METAR KRUT 201356Z AUTO 24012G21KT 10SM BKN030 OVC040 12/06 A2959 RMK AO2 SLP043
                 T01170056 $ =
2018-10-20 08:56 METAR KRUT 201256Z AUTO 23011G21KT 10SM OVC035 11/06 A2959 RMK AO2 RAB1159E12
                 SLP042 P0000 T01110056 $ =
2018-10-20 07:56 METAR KRUT 201156Z AUTO 22008KT 180V250 10SM FEW030 OVC039 11/06 A2959 RMK AO2
                 SLP041 T01110056 10122 20106 55007 $ =
2018-10-20 06:56 METAR KRUT 201056Z AUTO 23015G21KT 190V260 10SM SCT030 OVC039 12/05 A2958 RMK
                 AO2 SLP038 T01170050 $ =
2018-10-20 05:56 METAR KRUT 200956Z AUTO VRB05KT 10SM OVC043 12/03 A2958 RMK AO2 SLP036 T01220033
                 $ =
2018-10-20 04:56 METAR KRUT 200856Z AUTO 19011G16KT 10SM OVC048 12/04 A2961 RMK AO2 SLP045
                 T01170039 58021 $ =
2018-10-20 03:56 METAR KRUT 200756Z AUTO 19007KT 160V230 10SM BKN055 OVC070 12/03 A2963 RMK AO2
                 SLP053 T01220028 $ =
2018-10-20 02:56 METAR KRUT 200656Z AUTO 18007G14KT 130V220 10SM OVC065 12/02 A2966 RMK AO2
                 SLP063 T01220017 $ =
2018-10-20 01:56 METAR KRUT 200556Z AUTO 09003KT 10SM BKN085 OVC100 11/00 A2967 RMK AO2 PRESFR
                 SLP069 T01060000 10117 20094 58037 $ =
2018-10-20 00:56 METAR KRUT 200456Z AUTO VRB05KT 10SM FEW120 11/00 A2972 RMK AO2 SLP087 T01060000
                 401440000 $ =

Support USWX by starting your Amazon purchase here.